Carver Park, New York
Current Conditions -  °F | °C
As of 9:56 PM on Monday 26 Jan 2015 (Local Time) from KHWV Reporting Station
Moderate Snow Moderate Snow  
Wind Chill: 14°   Ceiling: 900
Heat Index: 27°   Visibility: 0.5mi
Dew Point: 24°   Wind: 17mph
Humidity: 89%   Direction: 10°N
Pressure: 29.69"   Gusts: 33mph
Location:  40.835°N, 72.922°W
Report Text: KHWV 270256Z AUTO 01015G29KT 1/2SM SN FZFG VV009 M03/M04 A2969 RMK AO2 PK WND 36031/0246 SLP055 P0002 60004 T10281044 56030 TSNO
Loading
Personal Weather Stations






























Interactive Weather Map New forecast layout! Learn more

10-Day Weather Forecast

Advertisements
Track Severe Weather on mobile